sensor_id;sensor_type;location;lat;lon;timestamp;pressure;altitude;pressure_sealevel;temperature;humidity
30110;BME280;14965;50.660;13.226;2023-01-28T00:02:02;95429.75;;;-3.28;100.00
30110;BME280;14965;50.660;13.226;2023-01-28T00:04:28;95434.25;;;-3.32;100.00
30110;BME280;14965;50.660;13.226;2023-01-28T00:06:54;95439.66;;;-3.32;100.00
30110;BME280;14965;50.660;13.226;2023-01-28T00:09:20;95433.47;;;-3.32;100.00
30110;BME280;14965;50.660;13.226;2023-01-28T00:11:47;95431.09;;;-3.34;100.00
30110;BME280;14965;50.660;13.226;2023-01-28T00:14:13;95440.31;;;-3.35;100.00
30110;BME280;14965;50.660;13.226;2023-01-28T00:16:39;95433.03;;;-3.34;100.00
30110;BME280;14965;50.660;13.226;2023-01-28T00:19:05;95423.44;;;-3.32;100.00
30110;BME280;14965;50.660;13.226;2023-01-28T00:21:30;95436.63;;;-3.30;100.00
30110;BME280;14965;50.660;13.226;2023-01-28T00:23:56;95427.41;;;-3.29;100.00
30110;BME280;14965;50.660;13.226;2023-01-28T00:26:23;95420.19;;;-3.25;100.00
30110;BME280;14965;50.660;13.226;2023-01-28T00:28:51;95422.31;;;-3.18;100.00
30110;BME280;14965;50.660;13.226;2023-01-28T00:31:20;95412.22;;;-3.21;100.00
30110;BME280;14965;50.660;13.226;2023-01-28T00:33:48;95413.13;;;-3.17;100.00
30110;BME280;14965;50.660;13.226;2023-01-28T00:36:19;95413.91;;;-3.17;100.00
30110;BME280;14965;50.660;13.226;2023-01-28T00:38:49;95413.13;;;-3.17;100.00
30110;BME280;14965;50.660;13.226;2023-01-28T00:41:17;95411.53;;;-3.18;100.00
30110;BME280;14965;50.660;13.226;2023-01-28T00:43:44;95421.22;;;-3.17;100.00
30110;BME280;14965;50.660;13.226;2023-01-28T00:46:11;95409.28;;;-3.16;100.00
30110;BME280;14965;50.660;13.226;2023-01-28T00:48:38;95414.13;;;-3.10;100.00
30110;BME280;14965;50.660;13.226;2023-01-28T00:51:05;95422.81;;;-3.04;100.00
30110;BME280;14965;50.660;13.226;2023-01-28T00:53:32;95414.81;;;-3.01;100.00
30110;BME280;14965;50.660;13.226;2023-01-28T00:55:58;95410.97;;;-2.99;100.00
30110;BME280;14965;50.660;13.226;2023-01-28T00:58:24;95417.50;;;-3.01;100.00
30110;BME280;14965;50.660;13.226;2023-01-28T01:00:50;95423.25;;;-3.02;100.00
30110;BME280;14965;50.660;13.226;2023-01-28T01:03:18;95420.53;;;-3.02;100.00
30110;BME280;14965;50.660;13.226;2023-01-28T01:05:45;95416.69;;;-3.01;100.00
30110;BME280;14965;50.660;13.226;2023-01-28T01:08:11;95423.25;;;-3.02;100.00
30110;BME280;14965;50.660;13.226;2023-01-28T01:10:38;95418.63;;;-3.02;100.00
30110;BME280;14965;50.660;13.226;2023-01-28T01:13:05;95426.84;;;-2.98;100.00
30110;BME280;14965;50.660;13.226;2023-01-28T01:15:31;95429.22;;;-2.96;100.00
30110;BME280;14965;50.660;13.226;2023-01-28T01:17:57;95428.09;;;-2.95;100.00
30110;BME280;14965;50.660;13.226;2023-01-28T01:20:28;95423.81;;;-2.96;100.00
30110;BME280;14965;50.660;13.226;2023-01-28T01:22:55;95424.59;;;-2.96;100.00
30110;BME280;14965;50.660;13.226;2023-01-28T01:25:21;95414.69;;;-2.92;100.00
30110;BME280;14965;50.660;13.226;2023-01-28T01:27:48;95419.41;;;-2.89;100.00
30110;BME280;14965;50.660;13.226;2023-01-28T01:30:15;95427.31;;;-2.84;100.00
30110;BME280;14965;50.660;13.226;2023-01-28T01:32:41;95430.00;;;-2.84;100.00
30110;BME280;14965;50.660;13.226;2023-01-28T01:35:09;95424.81;;;-2.89;100.00
30110;BME280;14965;50.660;13.226;2023-01-28T01:37:37;95434.16;;;-2.86;100.00
30110;BME280;14965;50.660;13.226;2023-01-28T01:40:04;95433.81;;;-2.85;100.00
30110;BME280;14965;50.660;13.226;2023-01-28T01:42:32;95433.94;;;-2.81;100.00
30110;BME280;14965;50.660;13.226;2023-01-28T01:45:01;95438.91;;;-2.83;100.00
30110;BME280;14965;50.660;13.226;2023-01-28T01:47:35;95431.22;;;-2.81;100.00
30110;BME280;14965;50.660;13.226;2023-01-28T01:50:08;95423.47;;;-2.83;100.00
30110;BME280;14965;50.660;13.226;2023-01-28T01:52:40;95437.41;;;-2.81;100.00
30110;BME280;14965;50.660;13.226;2023-01-28T01:55:13;95428.28;;;-2.76;100.00
30110;BME280;14965;50.660;13.226;2023-01-28T01:57:43;95431.47;;;-2.74;100.00
30110;BME280;14965;50.660;13.226;2023-01-28T02:00:11;95426.16;;;-2.70;100.00
30110;BME280;14965;50.660;13.226;2023-01-28T02:02:43;95429.31;;;-2.68;100.00
30110;BME280;14965;50.660;13.226;2023-01-28T02:05:13;95430.91;;;-2.67;100.00
30110;BME280;14965;50.660;13.226;2023-01-28T02:07:42;95421.06;;;-2.72;100.00
30110;BME280;14965;50.660;13.226;2023-01-28T02:10:11;95420.75;;;-2.70;100.00
30110;BME280;14965;50.660;13.226;2023-01-28T02:12:42;95420.75;;;-2.70;100.00
30110;BME280;14965;50.660;13.226;2023-01-28T02:15:12;95416.56;;;-2.80;100.00
30110;BME280;14965;50.660;13.226;2023-01-28T02:17:40;95430.91;;;-2.80;100.00
30110;BME280;14965;50.660;13.226;2023-01-28T02:20:10;95429.78;;;-2.79;100.00
30110;BME280;14965;50.660;13.226;2023-01-28T02:23:26;95428.41;;;-2.85;100.00
30110;BME280;14965;50.660;13.226;2023-01-28T02:26:34;95430.31;;;-2.85;100.00
30110;BME280;14965;50.660;13.226;2023-01-28T02:29:11;95431.34;;;-2.90;100.00
30110;BME280;14965;50.660;13.226;2023-01-28T02:31:50;95425.81;;;-2.93;100.00
30110;BME280;14965;50.660;13.226;2023-01-28T02:34:25;95425.38;;;-3.08;100.00
30110;BME280;14965;50.660;13.226;2023-01-28T02:37:02;95431.22;;;-3.06;100.00
30110;BME280;14965;50.660;13.226;2023-01-28T02:39:34;95434.03;;;-3.14;100.00
30110;BME280;14965;50.660;13.226;2023-01-28T02:42:07;95433.13;;;-3.18;100.00
30110;BME280;14965;50.660;13.226;2023-01-28T02:44:35;95446.44;;;-3.26;100.00
30110;BME280;14965;50.660;13.226;2023-01-28T02:47:01;95442.91;;;-3.26;100.00
30110;BME280;14965;50.660;13.226;2023-01-28T02:49:32;95440.81;;;-3.20;100.00
30110;BME280;14965;50.660;13.226;2023-01-28T02:52:18;95447.00;;;-3.20;100.00
30110;BME280;14965;50.660;13.226;2023-01-28T02:54:55;95452.81;;;-3.18;100.00
30110;BME280;14965;50.660;13.226;2023-01-28T02:57:37;95451.25;;;-3.19;100.00
30110;BME280;14965;50.660;13.226;2023-01-28T03:00:15;95457.44;;;-3.18;100.00
30110;BME280;14965;50.660;13.226;2023-01-28T03:02:52;95456.34;;;-3.17;100.00
30110;BME280;14965;50.660;13.226;2023-01-28T03:05:25;95460.94;;;-3.18;100.00
30110;BME280;14965;50.660;13.226;2023-01-28T03:07:54;95453.84;;;-3.22;100.00
30110;BME280;14965;50.660;13.226;2023-01-28T03:10:24;95456.34;;;-3.17;100.00
30110;BME280;14965;50.660;13.226;2023-01-28T03:12:54;95450.25;;;-3.14;100.00
30110;BME280;14965;50.660;13.226;2023-01-28T03:15:26;95449.03;;;-3.17;100.00
30110;BME280;14965;50.660;13.226;2023-01-28T03:18:00;95457.78;;;-3.20;100.00
30110;BME280;14965;50.660;13.226;2023-01-28T03:20:37;95455.44;;;-3.21;100.00
30110;BME280;14965;50.660;13.226;2023-01-28T03:23:10;95460.16;;;-3.18;100.00
30110;BME280;14965;50.660;13.226;2023-01-28T03:25:43;95463.84;;;-3.23;100.00
30110;BME280;14965;50.660;13.226;2023-01-28T03:28:16;95462.16;;;-3.28;100.00
30110;BME280;14965;50.660;13.226;2023-01-28T03:30:51;95466.66;;;-3.32;100.00
30110;BME280;14965;50.660;13.226;2023-01-28T03:33:20;95470.94;;;-3.31;100.00
30110;BME280;14965;50.660;13.226;2023-01-28T03:35:48;95477.59;;;-3.28;100.00
30110;BME280;14965;50.660;13.226;2023-01-28T03:38:16;95476.13;;;-3.26;100.00
30110;BME280;14965;50.660;13.226;2023-01-28T03:40:48;95479.94;;;-3.27;100.00
30110;BME280;14965;50.660;13.226;2023-01-28T03:43:14;95473.97;;;-3.32;100.00
30110;BME280;14965;50.660;13.226;2023-01-28T03:45:40;95475.41;;;-3.35;100.00
30110;BME280;14965;50.660;13.226;2023-01-28T03:48:08;95480.16;;;-3.32;100.00
30110;BME280;14965;50.660;13.226;2023-01-28T03:50:33;95479.16;;;-3.27;100.00
30110;BME280;14965;50.660;13.226;2023-01-28T03:52:59;95484.69;;;-3.23;100.00
30110;BME280;14965;50.660;13.226;2023-01-28T03:55:25;95487.84;;;-3.21;100.00
30110;BME280;14965;50.660;13.226;2023-01-28T03:57:51;95488.94;;;-3.22;100.00
30110;BME280;14965;50.660;13.226;2023-01-28T04:00:18;95477.13;;;-3.18;100.00
30110;BME280;14965;50.660;13.226;2023-01-28T04:02:44;95475.56;;;-3.19;100.00
30110;BME280;14965;50.660;13.226;2023-01-28T04:05:11;95476.22;;;-3.22;100.00
30110;BME280;14965;50.660;13.226;2023-01-28T04:07:37;95486.06;;;-3.17;100.00
30110;BME280;14965;50.660;13.226;2023-01-28T04:10:06;95479.66;;;-3.13;100.00
30110;BME280;14965;50.660;13.226;2023-01-28T04:12:32;95474.38;;;-3.09;100.00
30110;BME280;14965;50.660;13.226;2023-01-28T04:14:57;95478.88;;;-3.13;100.00
30110;BME280;14965;50.660;13.226;2023-01-28T04:17:23;95482.00;;;-3.11;100.00
30110;BME280;14965;50.660;13.226;2023-01-28T04:19:49;95479.84;;;-3.18;100.00
30110;BME280;14965;50.660;13.226;2023-01-28T04:22:16;95480.84;;;-3.22;100.00
30110;BME280;14965;50.660;13.226;2023-01-28T04:24:42;95478.13;;;-3.35;100.00
30110;BME280;14965;50.660;13.226;2023-01-28T04:27:08;95477.34;;;-3.35;100.00
30110;BME280;14965;50.660;13.226;2023-01-28T04:29:34;95473.84;;;-3.36;100.00
30110;BME280;14965;50.660;13.226;2023-01-28T04:31:59;95489.63;;;-3.38;100.00
30110;BME280;14965;50.660;13.226;2023-01-28T04:34:25;95487.03;;;-3.34;100.00
30110;BME280;14965;50.660;13.226;2023-01-28T04:36:51;95480.50;;;-3.33;100.00
30110;BME280;14965;50.660;13.226;2023-01-28T04:39:18;95487.13;;;-3.31;100.00
30110;BME280;14965;50.660;13.226;2023-01-28T04:41:44;95484.13;;;-3.29;100.00
30110;BME280;14965;50.660;13.226;2023-01-28T04:44:10;95489.97;;;-3.27;100.00
30110;BME280;14965;50.660;13.226;2023-01-28T04:46:36;95489.66;;;-3.26;100.00
30110;BME280;14965;50.660;13.226;2023-01-28T04:49:02;95498.06;;;-3.27;100.00
30110;BME280;14965;50.660;13.226;2023-01-28T04:51:28;95503.34;;;-3.31;100.00
30110;BME280;14965;50.660;13.226;2023-01-28T04:53:54;95492.09;;;-3.33;100.00
30110;BME280;14965;50.660;13.226;2023-01-28T04:56:21;95504.00;;;-3.46;100.00
30110;BME280;14965;50.660;13.226;2023-01-28T04:58:46;95492.94;;;-3.53;100.00
30110;BME280;14965;50.660;13.226;2023-01-28T05:01:12;95500.47;;;-3.59;100.00
30110;BME280;14965;50.660;13.226;2023-01-28T05:03:38;95503.47;;;-3.60;100.00
30110;BME280;14965;50.660;13.226;2023-01-28T05:06:04;95509.09;;;-3.65;100.00
30110;BME280;14965;50.660;13.226;2023-01-28T05:08:30;95511.00;;;-3.66;100.00
30110;BME280;14965;50.660;13.226;2023-01-28T05:10:56;95514.97;;;-3.63;100.00
30110;BME280;14965;50.660;13.226;2023-01-28T05:13:23;95513.31;;;-3.77;100.00
30110;BME280;14965;50.660;13.226;2023-01-28T05:15:52;95511.72;;;-3.78;100.00
30110;BME280;14965;50.660;13.226;2023-01-28T05:18:18;95516.13;;;-3.73;100.00
30110;BME280;14965;50.660;13.226;2023-01-28T05:20:44;95515.34;;;-3.73;100.00
30110;BME280;14965;50.660;13.226;2023-01-28T05:23:10;95525.34;;;-3.74;100.00
30110;BME280;14965;50.660;13.226;2023-01-28T05:25:36;95522.44;;;-3.69;100.00
30110;BME280;14965;50.660;13.226;2023-01-28T05:28:02;95530.09;;;-3.71;100.00
30110;BME280;14965;50.660;13.226;2023-01-28T05:30:29;95525.34;;;-3.74;100.00
30110;BME280;14965;50.660;13.226;2023-01-28T05:32:55;95528.84;;;-3.73;100.00
30110;BME280;14965;50.660;13.226;2023-01-28T05:35:22;95521.81;;;-3.87;100.00
30110;BME280;14965;50.660;13.226;2023-01-28T05:37:48;95524.66;;;-3.83;100.00
30110;BME280;14965;50.660;13.226;2023-01-28T05:40:14;95518.13;;;-3.82;100.00
30110;BME280;14965;50.660;13.226;2023-01-28T05:42:40;95518.13;;;-3.82;100.00
30110;BME280;14965;50.660;13.226;2023-01-28T05:45:07;95529.25;;;-3.84;100.00
30110;BME280;14965;50.660;13.226;2023-01-28T05:47:35;95528.53;;;-3.93;100.00
30110;BME280;14965;50.660;13.226;2023-01-28T05:50:01;95525.09;;;-4.02;100.00
30110;BME280;14965;50.660;13.226;2023-01-28T05:52:26;95521.97;;;-4.04;100.00
30110;BME280;14965;50.660;13.226;2023-01-28T05:54:52;95529.56;;;-4.06;100.00
30110;BME280;14965;50.660;13.226;2023-01-28T05:57:18;95520.84;;;-4.03;100.00
30110;BME280;14965;50.660;13.226;2023-01-28T05:59:44;95524.66;;;-4.04;100.00
30110;BME280;14965;50.660;13.226;2023-01-28T06:02:10;95529.31;;;-4.13;100.00
30110;BME280;14965;50.660;13.226;2023-01-28T06:04:37;95530.91;;;-4.12;100.00
30110;BME280;14965;50.660;13.226;2023-01-28T06:07:03;95527.28;;;-4.16;100.00
30110;BME280;14965;50.660;13.226;2023-01-28T06:09:28;95532.34;;;-4.15;100.00
30110;BME280;14965;50.660;13.226;2023-01-28T06:11:54;95534.72;;;-4.13;100.00
30110;BME280;14965;50.660;13.226;2023-01-28T06:14:20;95546.44;;;-4.09;100.00
30110;BME280;14965;50.660;13.226;2023-01-28T06:16:46;95548.31;;;-4.10;100.00
30110;BME280;14965;50.660;13.226;2023-01-28T06:19:12;95558.94;;;-4.05;100.00
30110;BME280;14965;50.660;13.226;2023-01-28T06:21:39;95554.00;;;-4.03;100.00
30110;BME280;14965;50.660;13.226;2023-01-28T06:24:05;95557.47;;;-4.02;100.00
30110;BME280;14965;50.660;13.226;2023-01-28T06:26:31;95564.91;;;-3.99;100.00
30110;BME280;14965;50.660;13.226;2023-01-28T06:28:56;95567.63;;;-3.99;100.00
30110;BME280;14965;50.660;13.226;2023-01-28T06:31:22;95574.94;;;-3.99;100.00
30110;BME280;14965;50.660;13.226;2023-01-28T06:33:48;95581.66;;;-4.14;100.00
30110;BME280;14965;50.660;13.226;2023-01-28T06:36:14;95584.63;;;-4.28;100.00
30110;BME280;14965;50.660;13.226;2023-01-28T06:38:41;95589.66;;;-4.27;100.00
30110;BME280;14965;50.660;13.226;2023-01-28T06:41:07;95590.19;;;-4.33;100.00
30110;BME280;14965;50.660;13.226;2023-01-28T06:43:33;95591.44;;;-4.31;100.00
30110;BME280;14965;50.660;13.226;2023-01-28T06:45:59;95590.50;;;-4.35;100.00
30110;BME280;14965;50.660;13.226;2023-01-28T06:48:27;95592.59;;;-4.40;100.00
30110;BME280;14965;50.660;13.226;2023-01-28T06:50:53;95591.19;;;-4.38;100.00
30110;BME280;14965;50.660;13.226;2023-01-28T06:53:19;95592.94;;;-4.42;100.00
30110;BME280;14965;50.660;13.226;2023-01-28T06:55:47;95595.44;;;-4.37;100.00
30110;BME280;14965;50.660;13.226;2023-01-28T06:58:13;95592.31;;;-4.39;100.00
30110;BME280;14965;50.660;13.226;2023-01-28T07:00:39;95605.16;;;-4.44;100.00
30110;BME280;14965;50.660;13.226;2023-01-28T07:03:05;95609.16;;;-4.51;100.00
30110;BME280;14965;50.660;13.226;2023-01-28T07:05:31;95616.94;;;-4.58;100.00
30110;BME280;14965;50.660;13.226;2023-01-28T07:07:57;95621.09;;;-4.69;100.00
30110;BME280;14965;50.660;13.226;2023-01-28T07:10:23;95623.66;;;-4.64;100.00
30110;BME280;14965;50.660;13.226;2023-01-28T07:12:50;95625.56;;;-4.73;100.00
30110;BME280;14965;50.660;13.226;2023-01-28T07:15:16;95616.88;;;-4.79;100.00
30110;BME280;14965;50.660;13.226;2023-01-28T07:17:43;95623.56;;;-4.85;100.00
30110;BME280;14965;50.660;13.226;2023-01-28T07:20:12;95626.41;;;-4.90;100.00
30110;BME280;14965;50.660;13.226;2023-01-28T07:22:41;95632.47;;;-5.02;100.00
30110;BME280;14965;50.660;13.226;2023-01-28T07:25:09;95643.88;;;-5.05;100.00
30110;BME280;14965;50.660;13.226;2023-01-28T07:27:35;95641.66;;;-5.11;100.00
30110;BME280;14965;50.660;13.226;2023-01-28T07:30:03;95644.84;;;-5.18;100.00
30110;BME280;14965;50.660;13.226;2023-01-28T07:32:29;95647.38;;;-5.21;100.00
30110;BME280;14965;50.660;13.226;2023-01-28T07:34:55;95637.84;;;-5.19;100.00
30110;BME280;14965;50.660;13.226;2023-01-28T07:37:21;95639.59;;;-5.23;100.00
30110;BME280;14965;50.660;13.226;2023-01-28T07:39:47;95638.81;;;-5.23;100.00
30110;BME280;14965;50.660;13.226;2023-01-28T07:42:13;95639.31;;;-5.30;100.00
30110;BME280;14965;50.660;13.226;2023-01-28T07:44:38;95640.09;;;-5.38;100.00
30110;BME280;14965;50.660;13.226;2023-01-28T07:47:06;95644.22;;;-5.41;100.00
30110;BME280;14965;50.660;13.226;2023-01-28T07:49:32;95635.53;;;-5.46;100.00
30110;BME280;14965;50.660;13.226;2023-01-28T07:51:58;95648.19;;;-5.38;100.00
30110;BME280;14965;50.660;13.226;2023-01-28T07:54:24;95650.56;;;-5.54;100.00
30110;BME280;14965;50.660;13.226;2023-01-28T07:56:50;95651.50;;;-5.50;100.00
30110;BME280;14965;50.660;13.226;2023-01-28T07:59:16;95649.75;;;-5.46;100.00
30110;BME280;14965;50.660;13.226;2023-01-28T08:01:42;95642.94;;;-5.43;100.00
30110;BME280;14965;50.660;13.226;2023-01-28T08:04:09;95640.91;;;-5.46;100.00
30110;BME280;14965;50.660;13.226;2023-01-28T08:06:34;95639.31;;;-5.47;100.00
30110;BME280;14965;50.660;13.226;2023-01-28T08:09:00;95644.22;;;-5.49;100.00
30110;BME280;14965;50.660;13.226;2023-01-28T08:11:26;95649.13;;;-5.60;100.00
30110;BME280;14965;50.660;13.226;2023-01-28T08:13:52;95650.06;;;-5.65;100.00
30110;BME280;14965;50.660;13.226;2023-01-28T08:16:18;95660.53;;;-5.63;100.00
30110;BME280;14965;50.660;13.226;2023-01-28T08:18:43;95650.38;;;-5.66;100.00
30110;BME280;14965;50.660;13.226;2023-01-28T08:21:10;95654.81;;;-5.70;100.00
30110;BME280;14965;50.660;13.226;2023-01-28T08:23:36;95665.59;;;-5.62;100.00
30110;BME280;14965;50.660;13.226;2023-01-28T08:26:02;95667.16;;;-5.43;100.00
30110;BME280;14965;50.660;13.226;2023-01-28T08:28:28;95668.13;;;-5.31;100.00
30110;BME280;14965;50.660;13.226;2023-01-28T08:30:54;95666.84;;;-5.24;100.00
30110;BME280;14965;50.660;13.226;2023-01-28T08:33:21;95667.81;;;-5.29;100.00
30110;BME280;14965;50.660;13.226;2023-01-28T08:35:47;95673.03;;;-5.24;100.00
30110;BME280;14965;50.660;13.226;2023-01-28T08:38:14;95670.03;;;-5.14;100.00
30110;BME280;14965;50.660;13.226;2023-01-28T08:40:40;95661.28;;;-5.11;99.73
30110;BME280;14965;50.660;13.226;2023-01-28T08:43:06;95678.09;;;-5.05;99.38
30110;BME280;14965;50.660;13.226;2023-01-28T08:45:32;95671.72;;;-4.92;99.24
30110;BME280;14965;50.660;13.226;2023-01-28T08:48:00;95675.53;;;-4.93;98.40
30110;BME280;14965;50.660;13.226;2023-01-28T08:50:29;95672.72;;;-5.05;95.60
30110;BME280;14965;50.660;13.226;2023-01-28T08:52:57;95667.63;;;-5.15;95.88
30110;BME280;14965;50.660;13.226;2023-01-28T08:55:25;95679.53;;;-5.16;96.85
30110;BME280;14965;50.660;13.226;2023-01-28T08:57:52;95683.00;;;-5.07;97.35
30110;BME280;14965;50.660;13.226;2023-01-28T09:00:20;95687.25;;;-5.06;97.80
30110;BME280;14965;50.660;13.226;2023-01-28T09:02:50;95685.03;;;-4.95;98.05
30110;BME280;14965;50.660;13.226;2023-01-28T09:05:20;95684.72;;;-4.94;97.04
30110;BME280;14965;50.660;13.226;2023-01-28T09:07:47;95688.66;;;-4.83;97.13
30110;BME280;14965;50.660;13.226;2023-01-28T09:10:22;95688.97;;;-4.76;97.41
30110;BME280;14965;50.660;13.226;2023-01-28T09:12:51;95691.84;;;-4.81;97.48
30110;BME280;14965;50.660;13.226;2023-01-28T09:15:18;95696.59;;;-4.86;98.19
30110;BME280;14965;50.660;13.226;2023-01-28T09:17:47;95699.94;;;-4.98;97.41
30110;BME280;14965;50.660;13.226;2023-01-28T09:20:17;95707.56;;;-5.09;98.26
30110;BME280;14965;50.660;13.226;2023-01-28T09:22:47;95710.88;;;-5.12;99.18
30110;BME280;14965;50.660;13.226;2023-01-28T09:25:18;95712.16;;;-5.09;99.03
30110;BME280;14965;50.660;13.226;2023-01-28T09:27:45;95711.81;;;-4.99;99.08
30110;BME280;14965;50.660;13.226;2023-01-28T09:37:44;95721.19;;;-4.96;97.95
30110;BME280;14965;50.660;13.226;2023-01-28T09:40:43;95725.78;;;-4.88;97.54
30110;BME280;14965;50.660;13.226;2023-01-28T09:44:18;95731.00;;;-4.92;96.05
30110;BME280;14965;50.660;13.226;2023-01-28T09:50:50;95715.81;;;-5.05;95.24
30110;BME280;14965;50.660;13.226;2023-01-28T09:53:33;95720.06;;;-5.04;95.47
30110;BME280;14965;50.660;13.226;2023-01-28T09:56:15;95724.50;;;-4.99;95.91
30110;BME280;14965;50.660;13.226;2023-01-28T09:58:49;95718.31;;;-5.00;95.82
30110;BME280;14965;50.660;13.226;2023-01-28T10:01:35;95717.69;;;-4.97;95.27
30110;BME280;14965;50.660;13.226;2023-01-28T10:04:24;95706.25;;;-4.94;95.51
30110;BME280;14965;50.660;13.226;2023-01-28T10:07:09;95714.66;;;-4.87;95.48
30110;BME280;14965;50.660;13.226;2023-01-28T10:09:49;95704.38;;;-4.85;95.05
30110;BME280;14965;50.660;13.226;2023-01-28T10:12:39;95706.56;;;-4.78;94.96
30110;BME280;14965;50.660;13.226;2023-01-28T10:15:49;95711.78;;;-4.73;94.42
30110;BME280;14965;50.660;13.226;2023-01-28T10:18:29;95708.47;;;-4.79;94.21
30110;BME280;14965;50.660;13.226;2023-01-28T10:21:07;95704.22;;;-4.88;93.99
30110;BME280;14965;50.660;13.226;2023-01-28T10:23:47;95703.28;;;-4.92;93.65
30110;BME280;14965;50.660;13.226;2023-01-28T10:26:26;95706.44;;;-4.99;93.81
30110;BME280;14965;50.660;13.226;2023-01-28T10:28:59;95711.66;;;-4.94;93.99
30110;BME280;14965;50.660;13.226;2023-01-28T10:31:35;95718.78;;;-4.89;93.87
30110;BME280;14965;50.660;13.226;2023-01-28T10:34:02;95705.97;;;-4.84;93.74
30110;BME280;14965;50.660;13.226;2023-01-28T10:36:28;95717.84;;;-4.85;93.05
30110;BME280;14965;50.660;13.226;2023-01-28T10:38:55;95722.75;;;-4.87;92.81
30110;BME280;14965;50.660;13.226;2023-01-28T10:41:23;95722.28;;;-4.89;92.48
30110;BME280;14965;50.660;13.226;2023-01-28T10:43:52;95721.97;;;-4.87;92.07
30110;BME280;14965;50.660;13.226;2023-01-28T10:46:22;95734.31;;;-4.78;92.38
30110;BME280;14965;50.660;13.226;2023-01-28T10:49:05;95727.16;;;-4.65;92.48
30110;BME280;14965;50.660;13.226;2023-01-28T10:51:51;95724.94;;;-4.63;92.49
30110;BME280;14965;50.660;13.226;2023-01-28T10:54:32;95729.69;;;-4.68;92.39
30110;BME280;14965;50.660;13.226;2023-01-28T10:57:36;95742.22;;;-4.72;91.95
30110;BME280;14965;50.660;13.226;2023-01-28T11:00:35;95744.13;;;-4.82;91.53
30110;BME280;14965;50.660;13.226;2023-01-28T11:03:38;95741.44;;;-4.82;91.77
30110;BME280;14965;50.660;13.226;2023-01-28T11:06:29;95740.34;;;-4.72;91.73
30110;BME280;14965;50.660;13.226;2023-01-28T11:12:39;95728.59;;;-4.67;91.73
30110;BME280;14965;50.660;13.226;2023-01-28T11:15:23;95736.34;;;-4.66;91.80
30110;BME280;14965;50.660;13.226;2023-01-28T11:18:07;95728.75;;;-4.64;92.11
30110;BME280;14965;50.660;13.226;2023-01-28T11:21:22;95751.59;;;-4.79;92.70
30110;BME280;14965;50.660;13.226;2023-01-28T11:23:56;95745.41;;;-4.70;92.18
30110;BME280;14965;50.660;13.226;2023-01-28T11:26:31;95737.44;;;-4.58;91.63
30110;BME280;14965;50.660;13.226;2023-01-28T11:29:17;95745.38;;;-4.53;91.74
30110;BME280;14965;50.660;13.226;2023-01-28T11:31:54;95745.81;;;-4.42;91.47
30110;BME280;14965;50.660;13.226;2023-01-28T11:34:33;95742.00;;;-4.41;91.37
30110;BME280;14965;50.660;13.226;2023-01-28T11:37:13;95745.34;;;-4.44;90.89
30110;BME280;14965;50.660;13.226;2023-01-28T11:39:43;95736.66;;;-4.50;89.82
30110;BME280;14965;50.660;13.226;2023-01-28T11:42:16;95734.75;;;-4.58;87.98
30110;BME280;14965;50.660;13.226;2023-01-28T11:44:51;95735.22;;;-4.65;88.82
30110;BME280;14965;50.660;13.226;2023-01-28T11:47:54;95727.78;;;-4.59;89.03
30110;BME280;14965;50.660;13.226;2023-01-28T11:50:38;95733.94;;;-4.50;89.43
30110;BME280;14965;50.660;13.226;2023-01-28T11:53:43;95736.81;;;-4.46;89.51
30110;BME280;14965;50.660;13.226;2023-01-28T11:56:53;95723.94;;;-4.49;89.02
30110;BME280;14965;50.660;13.226;2023-01-28T11:59:55;95718.38;;;-4.44;90.30
30110;BME280;14965;50.660;13.226;2023-01-28T12:02:45;95720.94;;;-4.48;89.91
30110;BME280;14965;50.660;13.226;2023-01-28T12:05:40;95714.94;;;-4.62;90.98
30110;BME280;14965;50.660;13.226;2023-01-28T12:08:44;95708.78;;;-4.71;89.01
30110;BME280;14965;50.660;13.226;2023-01-28T12:11:38;95709.75;;;-4.85;89.44
30110;BME280;14965;50.660;13.226;2023-01-28T12:19:24;95710.56;;;-5.10;89.03
30110;BME280;14965;50.660;13.226;2023-01-28T12:23:08;95711.81;;;-4.99;88.45
30110;BME280;14965;50.660;13.226;2023-01-28T12:26:15;95709.91;;;-4.90;89.89
30110;BME280;14965;50.660;13.226;2023-01-28T12:30:09;95713.09;;;-4.96;90.78
30110;BME280;14965;50.660;13.226;2023-01-28T12:37:09;95711.63;;;-4.77;89.08
30110;BME280;14965;50.660;13.226;2023-01-28T12:40:32;95708.16;;;-4.94;89.39
30110;BME280;14965;50.660;13.226;2023-01-28T12:43:28;95704.09;;;-5.09;89.69
30110;BME280;14965;50.660;13.226;2023-01-28T12:47:07;95700.59;;;-5.01;89.99
30110;BME280;14965;50.660;13.226;2023-01-28T12:50:52;95699.63;;;-4.96;89.73
30110;BME280;14965;50.660;13.226;2023-01-28T12:53:27;95697.88;;;-4.84;90.66
30110;BME280;14965;50.660;13.226;2023-01-28T12:56:16;95700.72;;;-4.80;90.25
30110;BME280;14965;50.660;13.226;2023-01-28T12:59:09;95704.03;;;-4.74;90.61
30110;BME280;14965;50.660;13.226;2023-01-28T13:02:03;95704.97;;;-4.70;90.76
30110;BME280;14965;50.660;13.226;2023-01-28T13:04:53;95693.06;;;-4.61;91.37
30110;BME280;14965;50.660;13.226;2023-01-28T13:07:43;95688.59;;;-4.57;91.24
30110;BME280;14965;50.660;13.226;2023-01-28T13:10:25;95687.47;;;-4.56;90.34
30110;BME280;14965;50.660;13.226;2023-01-28T13:13:04;95681.78;;;-4.54;90.05
30110;BME280;14965;50.660;13.226;2023-01-28T13:16:12;95689.25;;;-4.68;89.01
30110;BME280;14965;50.660;13.226;2023-01-28T13:19:19;95690.38;;;-4.69;89.60
30110;BME280;14965;50.660;13.226;2023-01-28T13:21:55;95687.38;;;-4.68;89.93
30110;BME280;14965;50.660;13.226;2023-01-28T13:25:10;95684.66;;;-4.59;90.45
30110;BME280;14965;50.660;13.226;2023-01-28T13:28:37;95694.31;;;-4.58;90.47
30110;BME280;14965;50.660;13.226;2023-01-28T13:31:59;95695.69;;;-4.43;91.14
30110;BME280;14965;50.660;13.226;2023-01-28T14:01:54;95718.63;;;-4.84;88.84
30110;BME280;14965;50.660;13.226;2023-01-28T14:08:59;95718.28;;;-4.65;89.45
30110;BME280;14965;50.660;13.226;2023-01-28T14:12:19;95721.75;;;-4.56;89.76
30110;BME280;14965;50.660;13.226;2023-01-28T14:15:21;95729.84;;;-4.65;89.63